Time;durP1;ratioP1;P1;durP2;ratioP2;P2;SDS_P1;SDS_P2;PMS_P1;PMS_P2;Temp;Humidity;BMP_temperature;BMP_pressure;BME280_temperature;BME280_humidity;BME280_pressure;Samples;Min_cycle;Max_cycle;Signal;HPM_P1;HPM_P2
2021/05/30 00:02:12;;;;;;;17.47;10.83;;;9.30;99.90;;;;;;6294878;22;20180;-77
2021/05/30 00:04:39;;;;;;;20.10;11.93;;;9.30;99.90;;;;;;6294478;22;20180;-80
2021/05/30 00:07:07;;;;;;;19.87;12.10;;;9.30;99.90;;;;;;6295227;22;20432;-78
2021/05/30 00:09:34;;;;;;;20.37;11.93;;;9.40;99.90;;;;;;6294499;22;20275;-79
2021/05/30 00:12:01;;;;;;;18.10;11.73;;;9.40;99.90;;;;;;6293850;22;20239;-81
2021/05/30 00:14:27;;;;;;;18.23;12.43;;;9.30;99.90;;;;;;6295442;22;20433;-79
2021/05/30 00:16:53;;;;;;;17.40;11.97;;;9.30;99.90;;;;;;6295272;22;20176;-75
2021/05/30 00:19:20;;;;;;;18.83;12.30;;;9.30;99.90;;;;;;6294707;22;20172;-79
2021/05/30 00:21:46;;;;;;;19.30;12.50;;;9.30;99.90;;;;;;6295890;22;20176;-79
2021/05/30 00:24:13;;;;;;;17.57;10.73;;;9.30;99.90;;;;;;6294979;22;20164;-75
2021/05/30 00:26:39;;;;;;;18.00;12.43;;;9.30;99.90;;;;;;6294366;22;20191;-76
2021/05/30 00:29:06;;;;;;;16.90;12.07;;;9.30;99.90;;;;;;6295876;22;20172;-79
2021/05/30 00:31:32;;;;;;;16.07;12.00;;;9.40;99.90;;;;;;6294103;22;20192;-79
2021/05/30 00:33:59;;;;;;;18.63;12.33;;;9.40;99.90;;;;;;6294718;22;20178;-79
2021/05/30 00:36:25;;;;;;;18.10;12.27;;;9.40;99.90;;;;;;6294764;22;20179;-78
2021/05/30 00:38:51;;;;;;;17.27;12.27;;;9.50;99.90;;;;;;6294558;22;20755;-79
2021/05/30 00:41:18;;;;;;;30.80;13.53;;;9.50;99.90;;;;;;6295145;22;20191;-79
2021/05/30 00:43:45;;;;;;;17.63;12.23;;;9.60;99.90;;;;;;6295914;22;20229;-78
2021/05/30 00:46:12;;;;;;;20.47;13.13;;;9.60;99.90;;;;;;6294634;22;20176;-78
2021/05/30 00:48:38;;;;;;;18.63;12.37;;;9.60;99.90;;;;;;6295047;22;20218;-76
2021/05/30 00:51:05;;;;;;;16.37;12.27;;;9.70;99.90;;;;;;6294193;22;20191;-79
2021/05/30 00:53:32;;;;;;;16.33;12.10;;;9.80;99.90;;;;;;6294397;22;20179;-79
2021/05/30 00:55:58;;;;;;;22.30;12.80;;;9.80;99.90;;;;;;6294516;22;20221;-80
2021/05/30 00:58:24;;;;;;;21.10;11.87;;;9.80;99.90;;;;;;6294861;22;20215;-77
2021/05/30 01:00:51;;;;;;;16.40;12.30;;;9.80;99.90;;;;;;6294673;22;20172;-79
2021/05/30 01:03:18;;;;;;;21.27;13.53;;;9.90;99.90;;;;;;6294788;22;20176;-79
2021/05/30 01:05:46;;;;;;;18.90;12.73;;;10.00;99.90;;;;;;6295523;22;20194;-79
2021/05/30 01:08:12;;;;;;;22.83;13.87;;;10.00;99.90;;;;;;6294750;22;20268;-79
2021/05/30 01:10:44;;;;;;;24.20;13.77;;;10.10;99.90;;;;;;6294788;22;20230;-80
2021/05/30 01:13:13;;;;;;;23.57;14.30;;;10.10;99.90;;;;;;6294151;22;20196;-79
2021/05/30 01:15:40;;;;;;;18.17;13.37;;;10.10;99.90;;;;;;6296780;22;20183;-80
2021/05/30 01:18:07;;;;;;;23.10;14.77;;;10.20;99.90;;;;;;6296752;22;20172;-76
2021/05/30 01:20:34;;;;;;;19.47;13.10;;;10.20;99.90;;;;;;6296218;22;20172;-79
2021/05/30 01:23:05;;;;;;;18.47;12.43;;;10.30;99.90;;;;;;6295396;22;20176;-79
2021/05/30 01:25:32;;;;;;;19.40;12.57;;;10.30;99.90;;;;;;6296803;22;20175;-80
2021/05/30 01:27:58;;;;;;;17.57;11.93;;;10.30;99.90;;;;;;6295720;22;20186;-80
2021/05/30 01:30:25;;;;;;;15.37;11.13;;;10.40;99.90;;;;;;6296642;22;20708;-79
2021/05/30 01:32:51;;;;;;;16.43;11.00;;;10.40;99.90;;;;;;6296911;22;20176;-79
2021/05/30 01:35:19;;;;;;;24.20;12.60;;;10.40;99.90;;;;;;6296118;22;20173;-78
2021/05/30 01:37:45;;;;;;;16.57;11.97;;;10.50;99.90;;;;;;6296416;22;20164;-79
2021/05/30 01:40:14;;;;;;;20.90;12.33;;;10.50;99.90;;;;;;6296731;22;20583;-79
2021/05/30 01:42:40;;;;;;;21.20;11.83;;;10.60;99.90;;;;;;6294867;22;20168;-79
2021/05/30 01:45:08;;;;;;;17.70;11.77;;;10.60;99.90;;;;;;6296749;22;20176;-79
2021/05/30 01:47:37;;;;;;;15.53;11.70;;;10.60;99.90;;;;;;6296629;22;20172;-78
2021/05/30 01:50:04;;;;;;;20.57;12.33;;;10.60;99.90;;;;;;6294809;22;20513;-78
2021/05/30 01:52:30;;;;;;;20.57;11.63;;;10.70;99.90;;;;;;6296133;22;20176;-79
2021/05/30 01:54:57;;;;;;;20.37;12.30;;;10.70;99.90;;;;;;6296399;22;20176;-79
2021/05/30 01:57:24;;;;;;;16.60;11.87;;;10.60;99.90;;;;;;6296055;22;20183;-77
2021/05/30 01:59:51;;;;;;;18.03;11.80;;;10.70;99.90;;;;;;6294998;22;20192;-79
2021/05/30 02:02:17;;;;;;;16.27;11.67;;;10.70;99.90;;;;;;6296393;22;20172;-78
2021/05/30 02:04:44;;;;;;;19.30;11.70;;;10.80;99.90;;;;;;6295267;22;20176;-77
2021/05/30 02:07:12;;;;;;;21.53;12.03;;;10.80;99.90;;;;;;6295952;22;20477;-76
2021/05/30 02:09:39;;;;;;;18.23;12.23;;;10.80;99.90;;;;;;6295457;22;20202;-76
2021/05/30 02:12:07;;;;;;;20.33;11.73;;;10.90;99.90;;;;;;6294827;22;20206;-79
2021/05/30 02:14:34;;;;;;;17.37;10.47;;;10.90;99.90;;;;;;6294452;22;20175;-78
2021/05/30 02:17:01;;;;;;;15.57;10.07;;;11.00;99.90;;;;;;6295085;22;20172;-77
2021/05/30 02:19:27;;;;;;;19.83;9.90;;;11.00;99.90;;;;;;6295547;22;20451;-77
2021/05/30 02:21:54;;;;;;;19.23;10.13;;;11.00;99.90;;;;;;6294739;22;20172;-76
2021/05/30 02:24:22;;;;;;;16.87;9.50;;;11.00;99.90;;;;;;6295099;22;20183;-77
2021/05/30 02:26:49;;;;;;;15.67;10.43;;;11.00;99.90;;;;;;6295138;22;20168;-77
2021/05/30 02:29:24;;;;;;;20.73;10.53;;;11.00;99.90;;;;;;6295836;22;20494;-77
2021/05/30 02:31:51;;;;;;;19.30;11.23;;;11.10;99.90;;;;;;6295174;22;20198;-78
2021/05/30 02:34:18;;;;;;;17.53;11.27;;;11.10;99.90;;;;;;6295952;22;20176;-80
2021/05/30 02:36:44;;;;;;;14.40;10.70;;;11.10;99.90;;;;;;6295320;22;20213;-76
2021/05/30 02:39:10;;;;;;;19.90;10.93;;;11.10;99.90;;;;;;6295569;22;20179;-77
2021/05/30 02:41:36;;;;;;;26.63;11.90;;;11.10;99.90;;;;;;6295860;22;20222;-75
2021/05/30 02:44:02;;;;;;;18.93;10.67;;;11.00;99.90;;;;;;6294603;22;20561;-77
2021/05/30 02:46:29;;;;;;;19.83;10.00;;;11.00;99.90;;;;;;6295263;22;20176;-76
2021/05/30 02:48:56;;;;;;;16.80;9.50;;;11.00;99.90;;;;;;6295901;22;20179;-80
2021/05/30 02:51:22;;;;;;;13.73;9.60;;;11.10;99.90;;;;;;6296400;22;20196;-79
2021/05/30 02:53:49;;;;;;;20.67;9.67;;;11.00;99.90;;;;;;6296334;22;20176;-80
2021/05/30 02:56:15;;;;;;;24.63;11.10;;;11.00;99.90;;;;;;6295207;22;20172;-80
2021/05/30 02:58:41;;;;;;;13.50;9.63;;;11.00;99.90;;;;;;6297197;22;20192;-77
2021/05/30 03:01:07;;;;;;;14.83;9.73;;;11.10;99.90;;;;;;6295605;22;20172;-76
2021/05/30 03:03:33;;;;;;;19.33;10.17;;;11.10;99.90;;;;;;6295913;22;20175;-80
2021/05/30 03:06:01;;;;;;;20.53;9.77;;;11.10;99.90;;;;;;6294568;22;20831;-80
2021/05/30 03:08:27;;;;;;;16.30;9.67;;;11.10;99.90;;;;;;6295179;22;20164;-80
2021/05/30 03:10:53;;;;;;;20.40;10.80;;;11.10;99.90;;;;;;6295564;22;20600;-80
2021/05/30 03:13:19;;;;;;;20.33;10.27;;;11.10;99.90;;;;;;6294697;22;20204;-81
2021/05/30 03:15:45;;;;;;;16.80;9.67;;;11.10;99.90;;;;;;6296058;22;20176;-79
2021/05/30 03:18:12;;;;;;;14.47;9.83;;;11.10;99.90;;;;;;6295601;22;20168;-80
2021/05/30 03:20:38;;;;;;;14.70;9.10;;;11.10;99.90;;;;;;6295425;22;20177;-77
2021/05/30 03:23:05;;;;;;;16.83;9.73;;;11.10;99.90;;;;;;6295390;22;20189;-79
2021/05/30 03:25:31;;;;;;;13.33;9.13;;;11.10;99.90;;;;;;6296842;22;20176;-81
2021/05/30 03:27:58;;;;;;;14.97;9.77;;;11.10;99.90;;;;;;6295437;22;20179;-80
2021/05/30 03:30:24;;;;;;;14.23;9.33;;;11.10;99.90;;;;;;6295617;22;20192;-78
2021/05/30 03:32:50;;;;;;;17.17;9.00;;;11.10;99.90;;;;;;6296025;22;20176;-79
2021/05/30 03:35:16;;;;;;;15.30;9.83;;;11.10;99.90;;;;;;6295568;22;20180;-79
2021/05/30 03:37:43;;;;;;;14.40;8.43;;;11.10;99.90;;;;;;6295398;22;20168;-79
2021/05/30 03:40:24;;;;;;;17.47;10.07;;;11.10;99.90;;;;;;6295068;22;20167;-77
2021/05/30 03:42:52;;;;;;;15.87;8.23;;;11.10;99.90;;;;;;6294730;22;20164;-78
2021/05/30 03:45:19;;;;;;;16.17;8.47;;;11.10;99.90;;;;;;6295972;22;20164;-79
2021/05/30 03:47:45;;;;;;;13.17;8.80;;;11.10;99.90;;;;;;6295641;22;20234;-78
2021/05/30 03:50:12;;;;;;;14.30;8.00;;;11.20;99.90;;;;;;6294069;22;20188;-79
2021/05/30 03:52:38;;;;;;;16.37;8.73;;;11.30;99.90;;;;;;6295158;22;20971;-78
2021/05/30 03:55:06;;;;;;;16.90;9.37;;;11.20;99.90;;;;;;6295449;22;20229;-79
2021/05/30 03:57:34;;;;;;;13.07;8.03;;;11.20;99.90;;;;;;6295592;22;20176;-79
2021/05/30 04:00:01;;;;;;;21.10;8.70;;;11.20;99.90;;;;;;6294870;22;20590;-78
2021/05/30 04:02:27;;;;;;;17.93;9.00;;;11.20;99.90;;;;;;6294859;22;20714;-79
2021/05/30 04:04:54;;;;;;;16.07;8.80;;;11.20;99.90;;;;;;6294949;22;20576;-79
2021/05/30 04:07:20;;;;;;;15.63;9.83;;;11.20;99.90;;;;;;6295300;22;20172;-80
2021/05/30 04:09:46;;;;;;;17.63;10.00;;;11.20;99.90;;;;;;6295544;22;20199;-79
2021/05/30 04:12:12;;;;;;;21.00;9.43;;;11.20;99.90;;;;;;6295181;22;20255;-78
2021/05/30 04:14:40;;;;;;;14.77;9.87;;;11.20;99.90;;;;;;6295128;22;20157;-81
2021/05/30 04:17:06;;;;;;;13.30;9.13;;;11.20;99.90;;;;;;6294796;22;20172;-77
2021/05/30 04:19:32;;;;;;;14.73;9.40;;;11.30;99.90;;;;;;6295632;22;20226;-75
2021/05/30 04:21:59;;;;;;;14.87;8.40;;;11.30;99.90;;;;;;6296278;22;20168;-75
2021/05/30 04:24:25;;;;;;;19.37;9.50;;;11.30;99.90;;;;;;6294582;22;20447;-76
2021/05/30 04:26:51;;;;;;;17.00;8.83;;;11.30;99.90;;;;;;6295430;22;20229;-80
2021/05/30 04:29:18;;;;;;;15.40;9.07;;;11.30;99.90;;;;;;6295571;22;20443;-80
2021/05/30 04:31:45;;;;;;;17.47;9.67;;;11.30;99.90;;;;;;6295077;22;20200;-79
2021/05/30 04:34:11;;;;;;;13.57;8.37;;;11.20;99.90;;;;;;6293933;22;20624;-77
2021/05/30 04:36:38;;;;;;;17.37;9.33;;;11.30;99.90;;;;;;6295364;22;20223;-81
2021/05/30 04:39:05;;;;;;;16.50;9.13;;;11.30;99.90;;;;;;6294396;22;20176;-81
2021/05/30 04:41:31;;;;;;;14.37;9.57;;;11.30;99.90;;;;;;6294694;22;20168;-79
2021/05/30 04:43:57;;;;;;;19.50;10.17;;;11.30;99.90;;;;;;6295199;22;20172;-80
2021/05/30 04:46:23;;;;;;;17.80;8.93;;;11.40;99.90;;;;;;6293824;22;20176;-80
2021/05/30 04:48:51;;;;;;;20.20;10.00;;;11.40;99.90;;;;;;6294849;22;20261;-80
2021/05/30 04:51:17;;;;;;;16.50;8.47;;;11.40;99.90;;;;;;6294745;22;20192;-80
2021/05/30 04:53:45;;;;;;;15.80;10.20;;;11.40;99.90;;;;;;6294407;22;20172;-77
2021/05/30 04:56:15;;;;;;;12.40;8.27;;;11.50;99.90;;;;;;6293923;22;20729;-79
2021/05/30 04:58:41;;;;;;;18.00;9.23;;;11.50;99.90;;;;;;6293624;22;20427;-78
2021/05/30 05:01:07;;;;;;;13.17;9.90;;;11.40;99.90;;;;;;6294575;22;20179;-79
2021/05/30 05:03:34;;;;;;;13.37;7.53;;;11.40;99.90;;;;;;6295222;22;20210;-77
2021/05/30 05:06:01;;;;;;;13.40;7.70;;;11.50;99.90;;;;;;6293056;22;20494;-76
2021/05/30 05:08:28;;;;;;;16.00;8.67;;;11.40;99.90;;;;;;6294661;22;20236;-79
2021/05/30 05:10:55;;;;;;;15.00;8.33;;;11.40;99.90;;;;;;6294148;22;20187;-79
2021/05/30 05:13:21;;;;;;;18.47;9.20;;;11.50;99.90;;;;;;6293841;22;20192;-77
2021/05/30 05:15:48;;;;;;;18.23;8.43;;;11.50;99.90;;;;;;6295021;22;20298;-77
2021/05/30 05:18:16;;;;;;;18.80;8.90;;;11.60;99.90;;;;;;6295335;22;20543;-81
2021/05/30 05:20:43;;;;;;;11.43;8.00;;;11.50;99.90;;;;;;6294252;22;20172;-80
2021/05/30 05:23:13;;;;;;;15.17;8.20;;;11.50;99.90;;;;;;6295073;22;20172;-79
2021/05/30 05:25:40;;;;;;;16.00;8.97;;;11.50;99.90;;;;;;6295589;22;20206;-76
2021/05/30 05:28:06;;;;;;;13.67;8.60;;;11.50;99.90;;;;;;6293181;22;20187;-79
2021/05/30 05:30:33;;;;;;;13.40;9.03;;;11.60;99.90;;;;;;6293782;22;20210;-78
2021/05/30 05:33:00;;;;;;;16.47;9.17;;;11.60;99.90;;;;;;6294481;22;20176;-80
2021/05/30 05:35:28;;;;;;;14.83;9.13;;;11.60;99.90;;;;;;6294677;22;20179;-79
2021/05/30 05:37:55;;;;;;;16.53;9.30;;;11.60;99.90;;;;;;6294441;22;20168;-78
2021/05/30 05:40:23;;;;;;;17.67;8.83;;;11.70;99.90;;;;;;6294294;22;20172;-78
2021/05/30 05:42:50;;;;;;;13.33;8.23;;;11.70;99.90;;;;;;6294368;22;20179;-79
2021/05/30 05:45:17;;;;;;;17.77;8.77;;;11.70;99.90;;;;;;6295361;22;20242;-78
2021/05/30 05:47:43;;;;;;;11.33;7.17;;;11.70;99.90;;;;;;6295285;22;20168;-79
2021/05/30 05:50:11;;;;;;;13.53;7.60;;;11.70;99.90;;;;;;6298505;22;20580;-78
2021/05/30 05:52:38;;;;;;;9.50;7.20;;;11.70;99.90;;;;;;6301105;22;20273;-78
2021/05/30 05:55:06;;;;;;;13.20;8.43;;;11.80;99.90;;;;;;6303558;22;20176;-77
2021/05/30 05:57:33;;;;;;;13.60;8.23;;;11.80;99.90;;;;;;6298145;22;20172;-77
2021/05/30 05:59:59;;;;;;;14.53;7.57;;;11.90;99.90;;;;;;6299578;22;20175;-78
2021/05/30 06:02:25;;;;;;;13.13;8.80;;;12.00;99.90;;;;;;6298962;22;20176;-77
2021/05/30 06:04:52;;;;;;;16.30;8.23;;;11.90;99.90;;;;;;6296641;22;20176;-78
2021/05/30 06:07:18;;;;;;;12.13;8.13;;;12.10;99.90;;;;;;6296289;22;20176;-78
2021/05/30 06:09:44;;;;;;;16.30;8.90;;;12.10;99.90;;;;;;6295768;22;20176;-76
2021/05/30 06:12:11;;;;;;;16.13;9.10;;;12.20;99.90;;;;;;6296103;22;20208;-79
2021/05/30 06:14:38;;;;;;;13.40;9.17;;;12.20;99.90;;;;;;6296618;22;20283;-76
2021/05/30 06:17:05;;;;;;;13.77;8.70;;;12.20;99.90;;;;;;6295098;22;20175;-80
2021/05/30 06:19:32;;;;;;;11.43;7.60;;;12.30;99.90;;;;;;6298336;22;20172;-77
2021/05/30 06:21:58;;;;;;;15.27;8.67;;;12.30;99.90;;;;;;6296971;22;20172;-79
2021/05/30 06:24:25;;;;;;;13.13;8.63;;;12.30;99.90;;;;;;6297024;22;20176;-79
2021/05/30 06:26:54;;;;;;;13.77;8.73;;;12.30;99.90;;;;;;6296783;22;20176;-77
2021/05/30 06:29:21;;;;;;;11.53;7.87;;;12.30;99.90;;;;;;6298200;22;20235;-78
2021/05/30 06:31:48;;;;;;;14.03;8.20;;;12.30;99.90;;;;;;6296694;22;20847;-82
2021/05/30 06:34:15;;;;;;;10.10;8.30;;;12.40;99.90;;;;;;6298623;22;20179;-80
2021/05/30 06:36:42;;;;;;;16.53;7.93;;;12.50;99.90;;;;;;6299463;22;20203;-77
2021/05/30 06:39:08;;;;;;;10.10;7.40;;;12.60;99.90;;;;;;6297763;22;20179;-76
2021/05/30 06:41:35;;;;;;;11.20;8.47;;;12.70;99.90;;;;;;6298174;22;20169;-81
2021/05/30 06:44:16;;;;;;;11.33;9.17;;;12.80;99.90;;;;;;6229724;22;20175;-78
2021/05/30 06:46:43;;;;;;;13.07;9.40;;;12.90;99.90;;;;;;6283598;22;20225;-75
2021/05/30 06:49:10;;;;;;;12.33;9.37;;;12.90;99.90;;;;;;6295616;22;20172;-74
2021/05/30 06:51:36;;;;;;;11.53;9.07;;;13.00;99.90;;;;;;6295930;22;20651;-76
2021/05/30 06:54:04;;;;;;;16.70;9.17;;;13.10;99.90;;;;;;6296478;22;20194;-80
2021/05/30 06:56:31;;;;;;;16.00;11.50;;;13.20;99.90;;;;;;6296795;22;20229;-79
2021/05/30 06:58:57;;;;;;;13.13;10.90;;;13.30;99.90;;;;;;6293976;22;20198;-78
2021/05/30 07:01:24;;;;;;;12.07;9.83;;;13.30;99.90;;;;;;6291364;22;20168;-79
2021/05/30 07:03:51;;;;;;;13.23;11.23;;;13.30;99.90;;;;;;6295020;22;20461;-79
2021/05/30 07:06:22;;;;;;;12.43;9.60;;;13.40;99.90;;;;;;6294942;22;20178;-79
2021/05/30 07:08:48;;;;;;;12.70;9.83;;;13.80;99.90;;;;;;6296001;22;20395;-79
2021/05/30 07:11:15;;;;;;;12.80;9.50;;;14.30;99.90;;;;;;6295618;22;20254;-79
2021/05/30 07:13:41;;;;;;;15.00;10.23;;;14.60;99.90;;;;;;6293977;22;20257;-79
2021/05/30 07:16:07;;;;;;;14.20;10.00;;;14.60;99.90;;;;;;6295485;22;20175;-76
2021/05/30 07:18:34;;;;;;;12.53;10.40;;;14.60;99.90;;;;;;6295320;22;20168;-75
2021/05/30 07:21:00;;;;;;;12.07;9.97;;;14.50;99.90;;;;;;6296500;22;20171;-79
2021/05/30 07:23:27;;;;;;;13.20;9.50;;;14.50;99.90;;;;;;6296139;22;20172;-79
2021/05/30 07:25:55;;;;;;;12.43;9.90;;;14.60;99.90;;;;;;6296164;22;20183;-79
2021/05/30 07:28:22;;;;;;;14.60;10.37;;;14.70;99.90;;;;;;6295216;22;20254;-76
2021/05/30 07:30:49;;;;;;;13.17;10.03;;;15.30;99.90;;;;;;6294572;22;20196;-79
2021/05/30 07:33:15;;;;;;;12.32;10.48;;;15.60;99.90;;;;;;6295413;22;20172;-79
2021/05/30 07:35:42;;;;;;;16.65;11.75;;;15.90;99.90;;;;;;6294277;22;20171;-80
2021/05/30 07:38:08;;;;;;;12.70;10.77;;;16.20;99.90;;;;;;6295320;22;20183;-79
2021/05/30 07:40:36;;;;;;;15.88;11.07;;;16.40;99.90;;;;;;6294852;22;20172;-76
2021/05/30 07:43:02;;;;;;;14.55;11.40;;;16.30;99.90;;;;;;6294772;22;20183;-78
2021/05/30 07:45:29;;;;;;;15.02;11.02;;;16.30;99.90;;;;;;6295475;22;20187;-78
2021/05/30 07:47:56;;;;;;;13.75;11.13;;;16.30;99.90;;;;;;6294879;22;20199;-80
2021/05/30 07:50:23;;;;;;;13.98;11.07;;;16.60;99.90;;;;;;6295756;22;20226;-80
2021/05/30 07:52:50;;;;;;;17.10;11.77;;;16.90;99.90;;;;;;6296410;22;20182;-79
2021/05/30 07:55:17;;;;;;;12.82;10.95;;;17.00;99.90;;;;;;6295230;22;20182;-79
2021/05/30 07:57:45;;;;;;;11.15;10.05;;;16.90;99.90;;;;;;6295265;22;20172;-75
2021/05/30 08:00:13;;;;;;;13.05;9.70;;;17.10;99.90;;;;;;6295097;22;20720;-77
2021/05/30 08:02:39;;;;;;;12.98;10.65;;;17.60;99.90;;;;;;6296047;22;20180;-78
2021/05/30 08:05:07;;;;;;;12.73;9.82;;;17.50;99.90;;;;;;6295089;22;20172;-78
2021/05/30 08:07:34;;;;;;;13.45;10.57;;;17.70;99.90;;;;;;6294461;22;20164;-80
2021/05/30 08:10:00;;;;;;;13.27;9.30;;;18.00;99.90;;;;;;6293425;22;20256;-76
2021/05/30 08:12:29;;;;;;;13.02;10.02;;;18.20;99.90;;;;;;6294440;22;20294;-79
2021/05/30 08:14:56;;;;;;;11.60;9.02;;;18.50;99.90;;;;;;6294187;22;20495;-79
2021/05/30 08:17:22;;;;;;;12.05;9.25;;;19.00;99.90;;;;;;6294534;22;20168;-77
2021/05/30 08:19:49;;;;;;;13.10;10.88;;;19.10;99.90;;;;;;6295470;22;20471;-78
2021/05/30 08:22:16;;;;;;;12.45;9.23;;;19.20;99.90;;;;;;6294251;22;20624;-78
2021/05/30 08:24:43;;;;;;;9.98;8.98;;;19.10;99.90;;;;;;6294303;22;20172;-80
2021/05/30 08:27:10;;;;;;;12.85;9.98;;;19.50;99.90;;;;;;6295394;22;20577;-77
2021/05/30 08:29:37;;;;;;;10.88;9.52;;;19.50;99.90;;;;;;6293892;22;20168;-77
2021/05/30 08:32:05;;;;;;;14.50;10.30;;;19.40;99.90;;;;;;6294264;22;20199;-78
2021/05/30 08:34:32;;;;;;;13.25;10.23;;;19.00;99.90;;;;;;6295390;22;20172;-79
2021/05/30 08:36:59;;;;;;;14.55;10.57;;;19.00;99.90;;;;;;6293897;22;20176;-80
2021/05/30 08:39:25;;;;;;;14.30;10.68;;;19.00;99.90;;;;;;6295195;22;20180;-76
2021/05/30 08:41:51;;;;;;;10.85;8.82;;;19.00;99.90;;;;;;6294551;22;20684;-78
2021/05/30 08:44:17;;;;;;;12.82;11.18;;;18.90;99.90;;;;;;6294653;22;20172;-79
2021/05/30 08:46:44;;;;;;;12.60;8.63;;;18.90;99.90;;;;;;6294711;22;20174;-78
2021/05/30 08:49:11;;;;;;;11.95;9.70;;;18.80;99.90;;;;;;6294760;22;20175;-79
2021/05/30 08:51:39;;;;;;;9.98;8.98;;;18.70;99.90;;;;;;6293170;22;20202;-79
2021/05/30 08:54:11;;;;;;;12.32;10.32;;;19.30;99.90;;;;;;6294036;22;20164;-80
2021/05/30 08:56:39;;;;;;;13.05;10.60;;;19.40;99.90;;;;;;6292424;22;20183;-78
2021/05/30 08:59:27;;;;;;;11.50;9.30;;;19.10;99.90;;;;;;6293309;22;20202;-79
2021/05/30 09:01:54;;;;;;;9.77;7.95;;;19.10;99.90;;;;;;6293167;22;20178;-79
2021/05/30 09:04:32;;;;;;;10.95;9.27;;;19.50;99.90;;;;;;6293561;22;20229;-78
2021/05/30 09:06:58;;;;;;;10.75;8.27;;;19.80;99.90;;;;;;6293156;22;20623;-77
2021/05/30 09:09:24;;;;;;;11.82;8.98;;;20.00;99.90;;;;;;6293913;22;20180;-77
2021/05/30 09:11:52;;;;;;;10.00;8.20;;;20.30;99.90;;;;;;6294205;22;20199;-79
2021/05/30 09:14:21;;;;;;;10.18;7.82;;;20.80;99.90;;;;;;6292983;22;20467;-78
2021/05/30 09:16:58;;;;;;;12.65;8.80;;;20.90;99.90;;;;;;6293800;22;20178;-77
2021/05/30 09:19:40;;;;;;;10.73;7.32;;;21.00;99.90;;;;;;6292371;22;20168;-76
2021/05/30 09:22:35;;;;;;;15.35;10.88;;;21.10;99.90;;;;;;6293960;22;20239;-77
2021/05/30 09:25:22;;;;;;;11.27;8.75;;;21.10;99.90;;;;;;6293953;22;20187;-76
2021/05/30 09:27:57;;;;;;;12.32;9.15;;;21.10;99.90;;;;;;6293690;22;20187;-78
2021/05/30 09:30:29;;;;;;;10.50;8.77;;;21.10;99.90;;;;;;6293850;22;20493;-80
2021/05/30 09:33:02;;;;;;;10.52;8.50;;;21.10;99.90;;;;;;6294098;22;20247;-77
2021/05/30 09:35:43;;;;;;;10.43;8.15;;;20.90;99.90;;;;;;6294662;22;20473;-79
2021/05/30 09:38:14;;;;;;;10.63;8.48;;;21.20;99.90;;;;;;6295917;22;20171;-80
2021/05/30 09:40:43;;;;;;;8.75;7.38;;;21.50;99.90;;;;;;6295356;22;20172;-79
2021/05/30 09:43:11;;;;;;;12.90;8.73;;;21.70;99.90;;;;;;6295530;22;20183;-75
2021/05/30 09:45:40;;;;;;;8.95;8.05;;;22.20;99.90;;;;;;6294847;22;20164;-79
2021/05/30 09:48:16;;;;;;;12.10;8.63;;;22.20;99.90;;;;;;6294387;22;20172;-79
2021/05/30 09:50:43;;;;;;;11.52;8.40;;;22.50;99.90;;;;;;6295144;22;20983;-78
2021/05/30 09:53:29;;;;;;;10.43;7.82;;;22.20;99.90;;;;;;6296024;22;20163;-79
2021/05/30 09:55:55;;;;;;;9.88;8.02;;;22.20;99.90;;;;;;6295212;22;20191;-79
2021/05/30 09:58:24;;;;;;;10.35;7.90;;;21.60;99.90;;;;;;6295681;22;20196;-77
2021/05/30 10:01:00;;;;;;;11.43;7.30;;;21.50;99.90;;;;;;6296295;22;20229;-78
2021/05/30 10:03:27;;;;;;;9.73;7.13;;;21.50;99.90;;;;;;6295757;22;20601;-78
2021/05/30 10:05:54;;;;;;;11.77;8.65;;;21.10;99.90;;;;;;6295693;22;20183;-79
2021/05/30 10:08:22;;;;;;;7.88;6.95;;;21.50;99.90;;;;;;6294715;22;20183;-76
2021/05/30 10:10:48;;;;;;;11.02;8.25;;;21.70;99.90;;;;;;6295178;22;20200;-81
2021/05/30 10:13:15;;;;;;;11.13;7.80;;;21.70;99.90;;;;;;6295696;22;20203;-79
2021/05/30 10:15:41;;;;;;;7.97;6.47;;;22.10;99.90;;;;;;6295099;22;20360;-80
2021/05/30 10:18:11;;;;;;;12.18;7.47;;;22.30;99.90;;;;;;6294886;22;20473;-78
2021/05/30 10:20:39;;;;;;;11.57;7.28;;;22.20;99.90;;;;;;6295871;22;20179;-79
2021/05/30 10:23:08;;;;;;;9.35;6.85;;;22.50;99.90;;;;;;6293065;22;20176;-78
2021/05/30 10:25:36;;;;;;;10.48;8.13;;;22.30;99.90;;;;;;6294678;22;20172;-76
2021/05/30 10:28:10;;;;;;;9.43;7.28;;;22.30;99.90;;;;;;6295943;22;20681;-80
2021/05/30 10:30:38;;;;;;;12.43;8.77;;;22.40;99.90;;;;;;6294866;22;20182;-75
2021/05/30 10:33:16;;;;;;;10.32;7.95;;;22.60;99.90;;;;;;6294468;22;20881;-80
2021/05/30 10:35:46;;;;;;;9.73;7.40;;;22.70;99.90;;;;;;6295127;22;20211;-77
2021/05/30 10:38:33;;;;;;;10.52;8.20;;;22.40;99.90;;;;;;6293440;22;20573;-76
2021/05/30 10:41:13;;;;;;;11.30;7.88;;;22.20;99.90;;;;;;6294600;22;20176;-78
2021/05/30 10:43:39;;;;;;;9.13;7.35;;;22.30;99.90;;;;;;6295316;22;20389;-77
2021/05/30 10:46:07;;;;;;;10.40;8.10;;;22.50;99.90;;;;;;6294947;22;20175;-79
2021/05/30 10:48:35;;;;;;;9.40;7.43;;;22.70;99.90;;;;;;6294748;22;20176;-82
2021/05/30 10:51:29;;;;;;;11.13;7.97;;;22.60;99.90;;;;;;6294063;22;20766;-79
2021/05/30 10:54:08;;;;;;;8.35;6.53;;;22.40;99.90;;;;;;6294804;22;20172;-79
2021/05/30 10:56:37;;;;;;;7.00;5.38;;;22.30;99.90;;;;;;6295792;22;20178;-80
2021/05/30 10:59:27;;;;;;;10.13;7.40;;;22.50;99.90;;;;;;6293770;22;20196;-78
2021/05/30 11:01:55;;;;;;;8.65;6.72;;;22.60;99.90;;;;;;6295329;22;20160;-82
2021/05/30 11:04:38;;;;;;;7.30;6.15;;;22.90;99.90;;;;;;6295553;22;20175;-80
2021/05/30 11:07:29;;;;;;;9.60;8.10;;;23.10;99.90;;;;;;6294870;22;20175;-75
2021/05/30 11:10:19;;;;;;;8.70;6.60;;;22.70;99.90;;;;;;6293890;22;20176;-78
2021/05/30 11:12:53;;;;;;;9.05;6.95;;;22.70;99.90;;;;;;6293536;22;20960;-76
2021/05/30 11:15:35;;;;;;;8.80;6.75;;;23.00;99.90;;;;;;6294817;22;20532;-76
2021/05/30 11:18:02;;;;;;;11.20;9.82;;;22.80;99.90;;;;;;6293288;22;20799;-76
2021/05/30 11:20:47;;;;;;;12.45;8.07;;;23.00;99.90;;;;;;6293833;22;20938;-78
2021/05/30 11:23:15;;;;;;;10.13;9.13;;;22.50;99.90;;;;;;6295255;22;20539;-77
2021/05/30 11:25:47;;;;;;;9.73;6.45;;;22.70;99.90;;;;;;6293763;22;20179;-77
2021/05/30 11:28:16;;;;;;;7.57;6.38;;;22.70;99.90;;;;;;6294311;22;20175;-77
2021/05/30 11:30:49;;;;;;;9.40;7.60;;;23.10;99.90;;;;;;6294285;22;20172;-76
2021/05/30 11:33:39;;;;;;;9.57;6.90;;;23.10;99.90;;;;;;6292685;22;20636;-76
2021/05/30 11:36:07;;;;;;;8.77;7.28;;;23.30;99.90;;;;;;6294432;22;20251;-78
2021/05/30 11:38:35;;;;;;;8.90;6.60;;;22.40;99.90;;;;;;6294479;22;20172;-77
2021/05/30 11:41:11;;;;;;;8.77;5.55;;;22.60;99.90;;;;;;6293479;22;20172;-77
2021/05/30 11:43:37;;;;;;;6.32;5.07;;;22.70;99.90;;;;;;6293664;22;20172;-74
2021/05/30 11:46:11;;;;;;;10.10;6.13;;;22.80;99.90;;;;;;6293201;22;20279;-76
2021/05/30 11:48:38;;;;;;;7.82;6.82;;;23.20;99.90;;;;;;6293491;22;20168;-76
2021/05/30 11:51:04;;;;;;;7.25;5.70;;;23.20;99.90;;;;;;6293757;22;20588;-75
2021/05/30 11:53:33;;;;;;;7.97;6.10;;;23.30;99.90;;;;;;6294645;22;20176;-74
2021/05/30 11:56:02;;;;;;;7.30;6.38;;;23.10;99.90;;;;;;6292933;22;20172;-75
2021/05/30 11:58:29;;;;;;;6.28;5.30;;;23.00;99.90;;;;;;6294370;22;20191;-77
2021/05/30 12:00:59;;;;;;;7.63;5.50;;;23.20;99.90;;;;;;6293863;22;20221;-75
2021/05/30 12:03:26;;;;;;;12.38;10.98;;;23.00;99.90;;;;;;6294566;22;20190;-75
2021/05/30 12:05:59;;;;;;;8.43;7.35;;;23.00;99.90;;;;;;6294220;22;20175;-77
2021/05/30 12:08:26;;;;;;;9.35;6.13;;;22.80;99.90;;;;;;6293574;22;20179;-77
2021/05/30 12:10:55;;;;;;;7.93;6.68;;;22.70;99.90;;;;;;6294443;22;20183;-76
2021/05/30 12:13:31;;;;;;;8.45;5.50;;;22.40;99.90;;;;;;6294046;22;20206;-75
2021/05/30 12:15:59;;;;;;;7.80;5.22;;;22.60;99.90;;;;;;6293324;22;20175;-77
2021/05/30 12:18:26;;;;;;;5.93;5.40;;;22.70;99.90;;;;;;6294338;22;20229;-75
2021/05/30 12:20:59;;;;;;;8.43;6.35;;;23.00;99.90;;;;;;6293674;22;20171;-76
2021/05/30 12:23:25;;;;;;;7.93;5.47;;;23.10;99.90;;;;;;6293439;22;20172;-76
2021/05/30 12:25:54;;;;;;;6.55;5.00;;;23.10;99.90;;;;;;6291942;22;20168;-76
2021/05/30 12:28:22;;;;;;;7.05;5.85;;;23.30;99.90;;;;;;6293242;22;20176;-78
2021/05/30 12:30:51;;;;;;;5.35;4.70;;;23.70;99.90;;;;;;6290883;22;20561;-76
2021/05/30 12:33:17;;;;;;;7.45;4.95;;;23.60;99.90;;;;;;6294064;22;20190;-74
2021/05/30 12:35:49;;;;;;;12.88;8.95;;;23.80;99.90;;;;;;6294736;22;20211;-75
2021/05/30 12:38:18;;;;;;;6.65;5.05;;;23.60;99.90;;;;;;6293457;22;20278;-75
2021/05/30 12:40:45;;;;;;;8.57;7.22;;;23.50;99.90;;;;;;6293643;22;20194;-75
2021/05/30 12:43:11;;;;;;;5.75;4.85;;;23.60;99.90;;;;;;6292950;22;20183;-77